Time;durP1;ratioP1;P1;durP2;ratioP2;P2;SDS_P1;SDS_P2;PMS_P1;PMS_P2;Temp;Humidity;BMP_temperature;BMP_pressure;BME280_temperature;BME280_humidity;BME280_pressure;Samples;Min_cycle;Max_cycle;Signal;HPM_P1;HPM_P2
2022/01/17 00:01:23;;;;;;;135.95;84.95;;;;;;;-4.85;100.00;101646.19;5025285;28;20417;-78
2022/01/17 00:03:50;;;;;;;140.45;89.00;;;;;;;-4.83;100.00;101643.53;5027548;28;20116;-81
2022/01/17 00:06:16;;;;;;;135.68;86.60;;;;;;;-4.78;100.00;101644.13;5028321;28;20134;-79
2022/01/17 00:08:45;;;;;;;118.32;83.60;;;;;;;-4.57;100.00;101646.44;5031799;28;20042;-81
2022/01/17 00:11:14;;;;;;;131.23;86.35;;;;;;;-4.97;100.00;101633.91;5029735;28;20291;-80
2022/01/17 00:13:43;;;;;;;95.55;71.10;;;;;;;-4.69;100.00;101641.03;5028865;28;20050;-80
2022/01/17 00:16:13;;;;;;;100.72;78.93;;;;;;;-4.81;100.00;101633.94;5029120;28;20060;-80
2022/01/17 00:19:07;;;;;;;129.65;85.47;;;;;;;-4.74;100.00;101624.88;5028757;28;20053;-78
2022/01/17 00:21:33;;;;;;;156.95;91.68;;;;;;;-4.74;100.00;101624.88;5022668;28;20046;-78
2022/01/17 00:24:00;;;;;;;142.23;96.25;;;;;;;-4.52;100.00;101624.53;5030151;28;20049;-80
2022/01/17 00:26:27;;;;;;;134.82;91.85;;;;;;;-4.37;100.00;101631.44;5028532;28;20054;-80
2022/01/17 00:28:55;;;;;;;167.77;100.43;;;;;;;-4.48;100.00;101618.25;5030102;28;20127;-79
2022/01/17 00:31:22;;;;;;;208.73;107.00;;;;;;;-4.56;100.00;101614.41;5031318;28;20123;-79
2022/01/17 00:33:48;;;;;;;153.75;91.43;;;;;;;-4.63;100.00;101609.59;5031657;28;20111;-76
2022/01/17 00:36:15;;;;;;;115.32;75.97;;;;;;;-4.81;100.00;101617.53;5029812;28;20045;-78
2022/01/17 00:38:42;;;;;;;103.00;74.40;;;;;;;-4.58;100.00;101621.44;5032329;28;20123;-81
2022/01/17 00:41:09;;;;;;;95.88;69.15;;;;;;;-4.58;100.00;101611.06;5031031;28;20046;-82
2022/01/17 00:43:36;;;;;;;128.13;92.00;;;;;;;-4.55;100.00;101606.53;5032709;28;20104;-77
2022/01/17 00:46:04;;;;;;;127.78;89.63;;;;;;;-4.50;100.00;101607.13;5035732;28;20073;-78
2022/01/17 00:48:31;;;;;;;125.28;83.40;;;;;;;-4.46;100.00;101606.03;5030750;28;20045;-79
2022/01/17 00:50:57;;;;;;;130.73;84.15;;;;;;;-4.41;100.00;101610.97;5033922;28;20042;-78
2022/01/17 00:53:24;;;;;;;129.93;90.47;;;;;;;-4.44;100.00;101603.34;5025956;28;20453;-79
2022/01/17 00:55:51;;;;;;;122.88;86.30;;;;;;;-4.15;100.00;101609.44;5035767;28;20049;-78
2022/01/17 00:58:18;;;;;;;136.48;100.45;;;;;;;-4.41;100.00;101605.78;5029999;28;20050;-78
2022/01/17 01:00:45;;;;;;;107.25;83.18;;;;;;;-4.45;100.00;101599.94;5032541;28;20375;-80
2022/01/17 01:03:13;;;;;;;99.95;82.28;;;;;;;-4.27;100.00;101597.19;5028515;28;20072;-79
2022/01/17 01:05:40;;;;;;;98.35;84.60;;;;;;;-4.26;100.00;101591.91;5028619;28;20103;-79
2022/01/17 01:08:07;;;;;;;107.97;82.43;;;;;;;-4.51;100.00;101579.50;5033485;28;20539;-79
2022/01/17 01:10:34;;;;;;;100.88;78.30;;;;;;;-4.52;100.00;101567.47;5025223;28;20037;-79
2022/01/17 01:13:01;;;;;;;83.55;71.43;;;;;;;-4.33;100.00;101561.22;5031764;28;20049;-78
2022/01/17 01:15:47;;;;;;;88.55;71.50;;;;;;;-4.40;100.00;101560.75;5029972;28;20045;-78
2022/01/17 01:18:18;;;;;;;87.20;73.05;;;;;;;-4.46;100.00;101567.13;5032497;28;20452;-80
2022/01/17 01:29:04;;;;;;;171.10;95.25;;;;;;;-4.57;100.00;101550.50;5032201;28;20083;-79
2022/01/17 01:31:42;;;;;;;95.20;76.03;;;;;;;-4.73;100.00;101545.34;5034814;28;20115;-77
2022/01/17 01:34:11;;;;;;;90.35;73.38;;;;;;;-4.88;100.00;101547.06;5029392;28;20053;-80
2022/01/17 01:36:38;;;;;;;91.82;66.72;;;;;;;-5.19;100.00;101538.41;5031446;28;20081;-77
2022/01/17 01:39:07;;;;;;;91.45;67.20;;;;;;;-5.22;100.00;101535.13;5029539;28;20053;-78
2022/01/17 01:41:41;;;;;;;97.80;75.45;;;;;;;-5.35;100.00;101527.22;5029511;28;20387;-78
2022/01/17 01:44:12;;;;;;;115.05;79.50;;;;;;;-5.31;100.00;101510.56;5033007;28;20041;-81
2022/01/17 01:46:38;;;;;;;136.50;89.72;;;;;;;-5.33;100.00;101505.47;5034935;28;20050;-78
2022/01/17 01:49:05;;;;;;;163.68;95.60;;;;;;;-5.29;100.00;101503.56;5032689;28;20052;-79
2022/01/17 01:51:34;;;;;;;190.70;107.05;;;;;;;-5.19;100.00;101496.94;5027885;28;20049;-79
2022/01/17 01:54:01;;;;;;;167.73;100.75;;;;;;;-5.10;100.00;101503.38;5029147;28;20506;-78
2022/01/17 01:56:28;;;;;;;172.27;105.97;;;;;;;-5.32;100.00;101490.78;5033901;28;20057;-79
2022/01/17 01:58:54;;;;;;;174.45;104.47;;;;;;;-5.27;100.00;101493.09;5031497;28;20107;-79
2022/01/17 02:01:21;;;;;;;139.27;85.65;;;;;;;-5.35;100.00;101494.38;5031456;28;20382;-78
2022/01/17 02:03:48;;;;;;;131.95;86.75;;;;;;;-5.26;100.00;101495.63;5028675;28;20128;-81
2022/01/17 02:06:15;;;;;;;130.38;80.25;;;;;;;-5.13;100.00;101496.59;5031217;28;20367;-78
2022/01/17 02:08:43;;;;;;;133.43;85.20;;;;;;;-5.53;100.00;101490.22;5034191;28;20054;-79
2022/01/17 02:11:11;;;;;;;131.23;82.45;;;;;;;-5.58;100.00;101490.44;5028208;28;20134;-79
2022/01/17 02:13:39;;;;;;;117.75;77.47;;;;;;;-5.61;100.00;101487.19;5020538;28;20060;-80
2022/01/17 02:16:11;;;;;;;142.52;86.63;;;;;;;-5.56;100.00;101487.78;5030675;28;20049;-79
2022/01/17 02:18:38;;;;;;;138.73;93.72;;;;;;;-5.57;100.00;101475.75;5028947;28;20049;-79
2022/01/17 02:21:19;;;;;;;138.82;97.05;;;;;;;-5.67;100.00;101475.41;5030586;28;20456;-79
2022/01/17 02:23:48;;;;;;;160.93;105.28;;;;;;;-5.76;100.00;101474.16;5029885;28;20046;-80
2022/01/17 02:26:15;;;;;;;131.73;95.43;;;;;;;-5.91;100.00;101474.13;5029224;28;20069;-78
2022/01/17 02:28:46;;;;;;;141.65;98.75;;;;;;;-5.80;100.00;101477.81;5031802;28;20050;-78
2022/01/17 02:31:12;;;;;;;136.88;97.18;;;;;;;-5.66;100.00;101461.53;5029116;28;20417;-80
2022/01/17 02:33:40;;;;;;;133.63;93.47;;;;;;;-5.97;100.00;101470.16;5031311;28;20053;-79
2022/01/17 02:36:08;;;;;;;137.55;98.95;;;;;;;-6.04;100.00;101466.22;5027546;28;20498;-78
2022/01/17 02:38:35;;;;;;;139.30;96.20;;;;;;;-5.90;100.00;101470.63;5028482;28;20045;-79
2022/01/17 02:41:02;;;;;;;146.23;98.45;;;;;;;-5.88;100.00;101479.16;5029729;28;20041;-80
2022/01/17 02:43:30;;;;;;;126.75;90.15;;;;;;;-5.92;100.00;101469.88;5023600;28;20054;-80
2022/01/17 02:48:42;;;;;;;122.93;91.38;;;;;;;-6.04;100.00;101466.22;5030380;28;20060;-78
2022/01/17 02:51:11;;;;;;;115.85;90.88;;;;;;;-6.07;100.00;101472.38;5029908;28;20441;-79
2022/01/17 02:53:40;;;;;;;122.07;91.30;;;;;;;-6.08;100.00;101462.97;5026513;28;20049;-79
2022/01/17 02:56:08;;;;;;;124.25;93.55;;;;;;;-6.09;100.00;101463.84;5032516;28;20057;-80
2022/01/17 02:58:36;;;;;;;118.40;92.15;;;;;;;-6.17;100.00;101458.28;5029962;28;20049;-80
2022/01/17 03:01:06;;;;;;;122.90;90.78;;;;;;;-6.17;100.00;101460.00;5137110;22;20298;-78
2022/01/17 03:03:33;;;;;;;125.25;95.78;;;;;;;-6.13;100.00;101454.59;5022876;28;20119;-79
2022/01/17 03:06:00;;;;;;;113.50;85.55;;;;;;;-6.39;100.00;101455.13;5024810;28;20053;-81
2022/01/17 03:08:31;;;;;;;107.95;82.10;;;;;;;-6.27;100.00;101450.13;5019588;28;20046;-79
2022/01/17 03:11:00;;;;;;;116.93;82.68;;;;;;;-6.24;100.00;101454.31;5020825;28;20045;-79
2022/01/17 03:13:31;;;;;;;118.85;87.40;;;;;;;-6.30;100.00;101452.88;5018526;28;20060;-79
2022/01/17 03:16:00;;;;;;;114.00;84.65;;;;;;;-6.33;100.00;101449.63;5022335;28;20149;-79
2022/01/17 03:18:29;;;;;;;140.98;95.53;;;;;;;-6.30;100.00;101447.72;5024350;28;20112;-79
2022/01/17 03:20:56;;;;;;;123.25;86.93;;;;;;;-6.75;100.00;101445.72;5024441;28;20064;-78
2022/01/17 03:23:23;;;;;;;118.95;91.10;;;;;;;-6.47;100.00;101437.44;5022889;28;20116;-83
2022/01/17 03:25:51;;;;;;;130.95;89.28;;;;;;;-6.64;100.00;101429.69;5022641;28;20049;-79
2022/01/17 03:28:18;;;;;;;135.75;92.05;;;;;;;-6.40;100.00;101425.84;5028166;28;20102;-80
2022/01/17 03:30:45;;;;;;;133.27;89.68;;;;;;;-6.51;100.00;101422.97;5030662;28;20107;-78
2022/01/17 03:33:14;;;;;;;123.25;87.18;;;;;;;-6.55;100.00;101414.53;5029855;28;20478;-78
2022/01/17 03:35:42;;;;;;;104.57;81.00;;;;;;;-6.64;100.00;101416.78;5033665;28;20037;-80
2022/01/17 03:38:11;;;;;;;119.07;85.20;;;;;;;-6.65;100.00;101410.78;5030593;28;20041;-79
2022/01/17 03:40:38;;;;;;;123.78;90.93;;;;;;;-6.73;100.00;101408.56;5032285;28;20555;-79
2022/01/17 03:43:07;;;;;;;122.82;90.15;;;;;;;-6.54;100.00;101403.28;5028153;28;20046;-79
2022/01/17 03:45:34;;;;;;;118.78;91.85;;;;;;;-6.96;100.00;101403.69;5035063;28;20091;-79
2022/01/17 03:48:01;;;;;;;115.57;85.40;;;;;;;-6.88;100.00;101398.16;5040806;28;20561;-79
2022/01/17 03:50:28;;;;;;;120.82;82.05;;;;;;;-6.39;100.00;101399.06;5038350;28;20440;-80
2022/01/17 03:52:56;;;;;;;134.32;97.50;;;;;;;-6.36;100.00;101390.31;5027194;28;20045;-81
2022/01/17 03:55:26;;;;;;;95.65;72.22;;;;;;;-6.38;100.00;101400.75;5032822;28;20053;-80
2022/01/17 03:57:53;;;;;;;79.82;61.42;;;;;;;-6.19;100.00;101403.19;5027625;28;20462;-79
2022/01/17 04:00:23;;;;;;;108.38;76.53;;;;;;;-6.04;100.00;101396.38;5036884;28;20061;-80
2022/01/17 04:02:50;;;;;;;90.70;68.32;;;;;;;-6.05;100.00;101407.63;5029243;28;20050;-78
2022/01/17 04:05:18;;;;;;;76.82;64.20;;;;;;;-5.58;100.00;101401.59;5035180;28;20452;-78
2022/01/17 04:07:44;;;;;;;79.35;64.38;;;;;;;-5.44;100.00;101412.03;5032647;28;20456;-79
2022/01/17 04:10:12;;;;;;;68.20;58.05;;;;;;;-5.70;100.00;101400.50;5036076;28;20042;-78
2022/01/17 04:12:39;;;;;;;73.57;63.00;;;;;;;-5.67;100.00;101389.16;5033568;28;20045;-80
2022/01/17 04:15:07;;;;;;;82.57;70.70;;;;;;;-5.95;100.00;101398.47;5032899;28;20042;-78
2022/01/17 04:17:36;;;;;;;78.30;69.88;;;;;;;-5.68;100.00;101396.09;5036111;28;20133;-78
2022/01/17 04:20:11;;;;;;;72.10;64.88;;;;;;;-5.72;100.00;101397.16;5042877;28;20057;-78
2022/01/17 04:22:45;;;;;;;69.53;62.13;;;;;;;-5.68;100.00;101400.44;5030473;28;20045;-78
2022/01/17 04:25:12;;;;;;;75.50;64.63;;;;;;;-5.79;100.00;101398.44;5032831;28;20477;-78
2022/01/17 04:27:39;;;;;;;71.90;64.07;;;;;;;-5.87;100.00;101398.88;5031831;28;20050;-78
2022/01/17 04:30:07;;;;;;;84.90;74.57;;;;;;;-5.54;100.00;101400.50;5034878;28;20462;-77
2022/01/17 04:32:35;;;;;;;74.68;65.85;;;;;;;-5.64;100.00;101399.34;5034858;28;20049;-79
2022/01/17 04:35:03;;;;;;;69.85;62.50;;;;;;;-5.72;100.00;101384.22;5030396;28;20061;-79
2022/01/17 04:37:30;;;;;;;73.68;63.03;;;;;;;-5.64;100.00;101381.22;5035465;28;20049;-78
2022/01/17 04:39:57;;;;;;;81.85;70.38;;;;;;;-5.33;100.00;101390.69;5032683;28;20481;-78
2022/01/17 04:42:27;;;;;;;113.90;90.15;;;;;;;-4.21;100.00;101378.91;5031077;28;20516;-79
2022/01/17 04:45:11;;;;;;;72.13;64.63;;;;;;;-4.73;100.00;101387.25;5035236;28;20049;-80
2022/01/17 04:47:40;;;;;;;66.95;59.85;;;;;;;-4.87;100.00;101375.06;5034445;28;20058;-78
2022/01/17 04:50:10;;;;;;;61.88;55.70;;;;;;;-4.74;100.00;101383.81;5031281;28;20460;-79
2022/01/17 04:52:37;;;;;;;70.10;62.42;;;;;;;-3.79;100.00;101370.19;5034643;28;20503;-80
2022/01/17 04:55:05;;;;;;;61.15;55.15;;;;;;;-3.74;100.00;101368.16;5034177;28;20124;-80
2022/01/17 04:57:32;;;;;;;70.57;63.05;;;;;;;-4.42;100.00;101360.28;5034202;28;20053;-80
2022/01/17 04:59:59;;;;;;;77.70;69.47;;;;;;;-4.21;100.00;101356.38;5030779;28;20119;-82
2022/01/17 05:02:27;;;;;;;68.00;61.15;;;;;;;-3.62;100.00;101360.53;5031856;28;20057;-79
2022/01/17 05:04:55;;;;;;;65.18;59.17;;;;;;;-3.41;100.00;101358.31;5032925;28;20052;-78
2022/01/17 05:07:22;;;;;;;68.90;62.65;;;;;;;-3.22;100.00;101356.97;5028813;28;20115;-76
2022/01/17 05:09:48;;;;;;;68.97;62.28;;;;;;;-3.48;100.00;101350.06;5041037;28;20045;-79
2022/01/17 05:12:16;;;;;;;70.43;63.80;;;;;;;-3.38;100.00;101353.75;5032024;28;20387;-79
2022/01/17 05:14:46;;;;;;;67.53;61.22;;;;;;;-3.05;100.00;101363.69;5032893;28;20045;-79
2022/01/17 05:17:35;;;;;;;65.55;59.42;;;;;;;-3.57;100.00;101356.69;5031780;28;20045;-80
2022/01/17 05:20:05;;;;;;;60.88;55.42;;;;;;;-2.57;100.00;101350.06;5030186;28;20464;-79
2022/01/17 05:22:33;;;;;;;58.22;52.67;;;;;;;-3.01;100.00;101352.13;5033333;28;20196;-80
2022/01/17 05:25:01;;;;;;;54.15;49.40;;;;;;;-2.33;100.00;101334.50;5032831;28;20056;-78
2022/01/17 05:27:28;;;;;;;56.17;51.67;;;;;;;-2.39;100.00;101329.72;5028238;28;20050;-80
2022/01/17 05:29:55;;;;;;;57.22;52.47;;;;;;;-2.29;100.00;101325.56;5031377;28;20127;-79
2022/01/17 05:32:21;;;;;;;56.55;51.83;;;;;;;-2.21;100.00;101323.25;5033606;28;20095;-80
2022/01/17 05:34:48;;;;;;;58.75;53.88;;;;;;;-2.26;100.00;101308.91;5035948;28;20054;-78
2022/01/17 05:37:17;;;;;;;62.58;56.90;;;;;;;-2.48;100.00;101307.81;5029546;28;20053;-79
2022/01/17 05:39:44;;;;;;;60.00;54.90;;;;;;;-2.23;100.00;101311.28;5034358;28;20122;-79
2022/01/17 05:42:14;;;;;;;60.63;55.08;;;;;;;-2.43;100.00;101313.50;5031475;28;20041;-79
2022/01/17 05:44:42;;;;;;;62.28;56.45;;;;;;;-2.48;100.00;101304.34;5031352;28;20049;-81
2022/01/17 05:47:09;;;;;;;65.90;59.97;;;;;;;-1.87;100.00;101313.03;5034239;28;20049;-79
2022/01/17 05:49:35;;;;;;;59.20;54.50;;;;;;;-1.65;100.00;101307.09;5036627;28;20135;-81
2022/01/17 05:52:02;;;;;;;57.75;52.38;;;;;;;-1.89;100.00;101300.13;5029716;28;20049;-80
2022/01/17 05:54:30;;;;;;;56.63;51.63;;;;;;;-1.81;100.00;101306.56;5030821;28;20115;-80
2022/01/17 05:56:57;;;;;;;54.45;50.30;;;;;;;-1.49;100.00;101305.00;5040759;28;20049;-80
2022/01/17 05:59:24;;;;;;;55.40;50.85;;;;;;;-1.53;100.00;101308.81;5033764;28;20126;-79
2022/01/17 06:01:51;;;;;;;54.70;50.05;;;;;;;-1.57;100.00;101302.16;5028644;28;20042;-78
2022/01/17 06:04:17;;;;;;;55.05;50.10;;;;;;;-1.52;100.00;101322.66;5037251;28;20119;-78
2022/01/17 06:06:44;;;;;;;53.28;48.97;;;;;;;-1.39;100.00;101321.66;5030638;28;20103;-79
2022/01/17 06:09:11;;;;;;;77.63;71.43;;;;;;;-0.99;100.00;101312.63;5039592;28;20053;-80
2022/01/17 06:11:39;;;;;;;78.05;71.32;;;;;;;-0.96;100.00;101318.44;5036420;28;20123;-78
2022/01/17 06:14:07;;;;;;;76.25;69.85;;;;;;;-1.00;100.00;101319.63;5028863;28;20080;-79
2022/01/17 06:16:35;;;;;;;75.35;68.90;;;;;;;-0.43;100.00;101312.63;5031761;28;20041;-79
2022/01/17 06:21:23;;;;;;;75.45;69.55;;;;;;;-0.15;100.00;101313.06;5014337;27;20415;-80
2022/01/17 06:23:49;;;;;;;76.07;69.88;;;;;;;-0.16;100.00;101293.97;4997539;28;20049;-80
2022/01/17 06:26:16;;;;;;;81.78;74.82;;;;;;;-0.14;100.00;101302.50;4992250;28;20053;-81
2022/01/17 06:28:43;;;;;;;79.55;73.32;;;;;;;0.13;100.00;101315.16;4998834;28;20121;-80
2022/01/17 06:31:10;;;;;;;78.35;71.90;;;;;;;0.23;100.00;101320.44;5002719;28;20450;-81
2022/01/17 06:33:36;;;;;;;75.93;69.88;;;;;;;0.14;100.00;101326.41;5001237;28;20046;-78
2022/01/17 06:36:04;;;;;;;78.00;71.80;;;;;;;0.45;100.00;101320.38;5020011;28;20061;-80
2022/01/17 06:38:32;;;;;;;81.38;74.57;;;;;;;0.64;100.00;101322.31;5018175;28;20465;-81
2022/01/17 06:40:59;;;;;;;77.05;70.90;;;;;;;1.30;100.00;101311.56;5024275;28;20123;-79
2022/01/17 06:43:25;;;;;;;80.03;73.22;;;;;;;1.27;100.00;101313.59;5021251;28;20470;-78
2022/01/17 06:45:52;;;;;;;79.75;73.45;;;;;;;1.66;100.00;101311.94;5015388;28;20042;-78
2022/01/17 06:48:20;;;;;;;77.18;71.38;;;;;;;2.03;100.00;101313.97;5007770;28;20116;-79
2022/01/17 06:50:47;;;;;;;109.10;99.78;;;;;;;2.71;100.00;101314.81;5008754;28;20112;-81
2022/01/17 06:53:14;;;;;;;77.97;71.90;;;;;;;1.72;100.00;101314.03;5005636;28;20050;-80
2022/01/17 06:55:42;;;;;;;78.28;71.93;;;;;;;1.91;100.00;101310.66;5002545;28;20072;-82
2022/01/17 06:58:09;;;;;;;79.13;72.93;;;;;;;1.96;100.00;101313.66;5007327;28;20047;-79
2022/01/17 07:00:36;;;;;;;80.05;73.45;;;;;;;2.00;100.00;101291.50;5012198;28;20056;-78
2022/01/17 07:03:03;;;;;;;80.82;74.30;;;;;;;2.40;100.00;101281.84;5000248;28;20120;-80
2022/01/17 07:05:30;;;;;;;79.97;73.57;;;;;;;2.61;100.00;101295.63;5014131;28;20042;-81
2022/01/17 07:07:57;;;;;;;80.53;73.68;;;;;;;2.36;100.00;101290.94;5015040;28;20046;-81
2022/01/17 07:10:25;;;;;;;76.53;70.57;;;;;;;2.66;100.00;101282.94;5008086;28;20144;-77
2022/01/17 07:12:53;;;;;;;76.43;70.72;;;;;;;2.93;100.00;101286.59;5010848;28;20074;-80
2022/01/17 07:15:20;;;;;;;75.72;69.90;;;;;;;3.73;100.00;101289.59;5008709;28;20046;-79
2022/01/17 07:17:47;;;;;;;81.40;74.90;;;;;;;3.12;100.00;101281.31;5007822;28;20046;-78
2022/01/17 07:20:14;;;;;;;82.93;76.15;;;;;;;3.42;100.00;101269.72;5009169;28;20139;-81
2022/01/17 07:22:41;;;;;;;79.78;73.90;;;;;;;3.55;100.00;101285.13;5004876;28;20053;-78
2022/01/17 07:25:08;;;;;;;81.35;74.90;;;;;;;3.43;100.00;101299.44;5010518;28;20050;-81
2022/01/17 07:27:36;;;;;;;82.22;75.63;;;;;;;4.12;100.00;101287.56;5000621;28;20113;-79
2022/01/17 07:30:06;;;;;;;79.05;73.22;;;;;;;4.02;100.00;101286.78;5016265;28;20046;-80
2022/01/17 07:32:33;;;;;;;80.80;74.47;;;;;;;4.01;100.00;101293.03;4997207;28;20409;-80
2022/01/17 07:35:00;;;;;;;79.95;73.72;;;;;;;3.72;100.00;101262.47;4988391;28;20073;-81
2022/01/17 07:37:26;;;;;;;82.28;75.57;;;;;;;3.96;100.00;101247.94;4998015;28;20054;-81
2022/01/17 07:39:53;;;;;;;81.60;75.20;;;;;;;4.04;100.00;101240.16;5004538;28;20534;-81
2022/01/17 07:42:20;;;;;;;77.90;71.90;;;;;;;3.39;100.00;101253.44;4997935;28;20046;-78
2022/01/17 07:44:53;;;;;;;78.22;72.45;;;;;;;4.18;100.00;101268.53;5001433;28;20051;-82
2022/01/17 07:47:37;;;;;;;80.80;74.47;;;;;;;3.99;100.00;101285.25;4991097;28;20753;-78
2022/01/17 07:50:05;;;;;;;79.95;74.20;;;;;;;3.95;100.00;101320.72;4997090;28;20057;-81
2022/01/17 07:52:32;;;;;;;83.20;76.70;;;;;;;3.69;100.00;101310.06;4994993;28;20112;-82
2022/01/17 07:54:59;;;;;;;88.15;81.05;;;;;;;3.82;100.00;101321.06;4994907;28;20050;-82
2022/01/17 07:57:25;;;;;;;85.18;78.38;;;;;;;4.07;100.00;101330.03;4996983;28;20053;-81
2022/01/17 07:59:52;;;;;;;86.60;79.82;;;;;;;3.99;100.00;101311.56;5001961;28;20442;-82
2022/01/17 08:02:19;;;;;;;83.43;76.60;;;;;;;4.27;100.00;101303.63;4999163;28;20050;-81
2022/01/17 08:04:47;;;;;;;80.50;74.30;;;;;;;3.76;100.00;101291.94;4993387;28;20042;-78
2022/01/17 08:07:15;;;;;;;87.68;80.40;;;;;;;4.17;100.00;101268.69;4998139;28;20196;-81
2022/01/17 08:09:42;;;;;;;83.47;76.15;;;;;;;3.82;100.00;101238.78;4995972;28;20046;-82
2022/01/17 08:12:10;;;;;;;86.13;78.70;;;;;;;4.34;100.00;101281.00;4989644;28;20367;-79
2022/01/17 08:14:39;;;;;;;84.20;77.40;;;;;;;4.45;100.00;101330.75;4992262;28;20046;-81
2022/01/17 08:17:06;;;;;;;89.80;82.07;;;;;;;3.65;100.00;101351.56;4998208;28;20438;-80
2022/01/17 08:19:33;;;;;;;82.50;75.82;;;;;;;3.77;100.00;101404.75;5003848;28;20113;-81
2022/01/17 08:22:01;;;;;;;82.40;75.55;;;;;;;4.18;100.00;101434.19;4994750;28;20517;-79
2022/01/17 08:24:28;;;;;;;84.60;76.80;;;;;;;4.01;100.00;101432.34;4997093;28;20058;-80
2022/01/17 08:26:56;;;;;;;85.25;77.68;;;;;;;4.06;100.00;101406.44;4998116;28;20050;-80
2022/01/17 08:29:25;;;;;;;85.38;78.28;;;;;;;3.96;100.00;101374.94;4988741;28;20050;-82
2022/01/17 08:31:52;;;;;;;80.38;73.93;;;;;;;4.39;100.00;101389.22;4993097;28;20408;-83
2022/01/17 08:34:19;;;;;;;81.68;74.75;;;;;;;4.53;100.00;101343.97;4996773;28;20059;-82
2022/01/17 08:36:46;;;;;;;80.57;73.78;;;;;;;4.73;100.00;101320.94;4996314;28;20074;-80
2022/01/17 08:39:15;;;;;;;82.53;75.22;;;;;;;5.46;100.00;101320.56;4995501;28;20065;-81
2022/01/17 08:41:43;;;;;;;80.57;73.60;;;;;;;5.00;100.00;101274.41;5002188;28;20041;-82
2022/01/17 08:44:10;;;;;;;88.68;81.18;;;;;;;4.51;100.00;101260.94;4989958;28;20468;-80
2022/01/17 08:46:36;;;;;;;90.45;82.82;;;;;;;4.00;100.00;101289.56;4994143;28;20048;-79
2022/01/17 08:49:03;;;;;;;86.93;79.32;;;;;;;4.60;100.00;101288.97;4993952;28;20051;-80
2022/01/17 08:51:30;;;;;;;88.10;80.18;;;;;;;5.04;100.00;101270.47;4998784;28;20146;-81
2022/01/17 08:53:57;;;;;;;79.15;72.90;;;;;;;4.91;100.00;101276.16;4991421;28;20046;-82
2022/01/17 08:56:27;;;;;;;78.50;72.10;;;;;;;5.38;100.00;101282.81;4983641;28;20464;-80
2022/01/17 08:58:54;;;;;;;88.72;80.97;;;;;;;4.94;100.00;101269.78;4997363;28;20098;-80
2022/01/17 09:01:23;;;;;;;86.00;78.68;;;;;;;5.05;100.00;101265.06;4986807;28;20039;-78
2022/01/17 09:03:49;;;;;;;87.72;79.82;;;;;;;5.54;100.00;101261.84;4994675;28;20050;-82
2022/01/17 09:06:16;;;;;;;83.72;76.60;;;;;;;5.26;100.00;101258.56;4994388;28;20046;-80
2022/01/17 09:08:43;;;;;;;87.28;79.57;;;;;;;5.43;100.00;101238.41;4996695;28;20089;-81
2022/01/17 09:11:11;;;;;;;82.50;75.90;;;;;;;5.10;100.00;101229.53;4989568;28;20054;-82
2022/01/17 09:13:39;;;;;;;82.60;75.72;;;;;;;5.08;100.00;101216.50;4995690;28;20131;-82
2022/01/17 09:16:08;;;;;;;88.80;81.55;;;;;;;4.86;100.00;101223.16;4997426;28;20475;-78
2022/01/17 09:18:34;;;;;;;89.13;81.72;;;;;;;5.17;100.00;101212.13;4985234;28;20125;-77
2022/01/17 09:21:02;;;;;;;90.78;83.10;;;;;;;5.09;100.00;101222.63;4992804;28;20054;-80
2022/01/17 09:23:28;;;;;;;88.47;81.38;;;;;;;5.50;100.00;101211.25;5002569;28;20108;-82
2022/01/17 09:25:55;;;;;;;86.85;79.57;;;;;;;5.89;100.00;101202.75;4999441;28;20058;-78
2022/01/17 09:28:23;;;;;;;88.65;81.30;;;;;;;6.17;100.00;101216.50;4994661;28;20049;-82
2022/01/17 09:30:51;;;;;;;89.10;82.00;;;;;;;6.77;100.00;101202.06;4988999;28;20386;-82
2022/01/17 09:33:18;;;;;;;90.10;83.03;;;;;;;6.56;100.00;101197.31;4988301;28;20117;-83
2022/01/17 09:35:45;;;;;;;89.45;82.40;;;;;;;5.56;100.00;101206.31;4994175;28;20108;-82
2022/01/17 09:38:12;;;;;;;86.55;79.55;;;;;;;5.58;100.00;101201.72;4999971;28;20119;-80
2022/01/17 09:40:39;;;;;;;89.90;82.75;;;;;;;6.27;100.00;101218.97;4992195;28;20047;-84
2022/01/17 09:43:06;;;;;;;88.32;81.10;;;;;;;5.87;100.00;101220.56;4993006;28;20046;-80
2022/01/17 09:45:33;;;;;;;88.70;81.63;;;;;;;6.51;100.00;101241.06;4998400;28;20050;-81
2022/01/17 09:48:02;;;;;;;88.95;82.05;;;;;;;6.06;100.00;101229.19;4990232;28;20038;-79
2022/01/17 09:50:35;;;;;;;88.45;81.32;;;;;;;6.87;100.00;101223.84;4997171;28;20046;-78
2022/01/17 09:53:03;;;;;;;84.70;78.13;;;;;;;6.38;100.00;101228.34;4993400;28;20059;-82
2022/01/17 09:55:32;;;;;;;85.45;78.57;;;;;;;6.04;100.00;101217.97;4990383;28;20050;-79
2022/01/17 09:58:04;;;;;;;90.20;82.93;;;;;;;6.29;100.00;101213.50;4985323;28;20057;-80
2022/01/17 10:00:31;;;;;;;;;;;;;;;7.03;100.00;101198.38;4990877;28;20116;-81
2022/01/17 10:02:59;;;;;;;86.68;79.60;;;;;;;6.30;100.00;101215.19;4986260;28;19988;-83
2022/01/17 10:05:28;;;;;;;82.90;76.15;;;;;;;6.40;100.00;101205.25;4989880;28;20124;-79
2022/01/17 10:07:58;;;;;;;88.35;81.30;;;;;;;6.34;100.00;101204.13;4991041;28;20457;-80
2022/01/17 10:10:54;;;;;;;86.55;79.55;;;;;;;6.23;100.00;101198.34;4987352;28;20070;-82
2022/01/17 10:13:24;;;;;;;82.53;76.28;;;;;;;6.19;100.00;101216.31;4983973;28;20042;-79
2022/01/17 10:16:06;;;;;;;77.20;71.40;;;;;;;6.36;100.00;101201.31;4994101;28;20104;-79
2022/01/17 10:18:36;;;;;;;85.25;78.25;;;;;;;6.48;100.00;101212.38;4991633;28;20410;-81
2022/01/17 10:21:09;;;;;;;86.25;78.97;;;;;;;7.14;100.00;101174.22;4994266;28;20120;-80
2022/01/17 10:35:41;;;;;;;79.40;72.90;;;;;;;7.32;100.00;101156.28;4975112;28;20509;-79
2022/01/17 10:38:11;;;;;;;82.10;75.60;;;;;;;7.05;100.00;101173.44;4995456;28;20112;-80
2022/01/17 10:40:42;;;;;;;80.13;73.45;;;;;;;6.69;100.00;101174.84;4999986;28;20050;-82
2022/01/17 10:43:21;;;;;;;83.40;76.78;;;;;;;6.86;100.00;101173.81;4993819;28;20046;-79
2022/01/17 10:45:48;;;;;;;84.30;77.75;;;;;;;6.55;100.00;101163.19;4987711;28;20117;-79
2022/01/17 10:48:15;;;;;;;79.97;73.05;;;;;;;7.30;100.00;101166.22;4989286;28;20050;-80
2022/01/17 10:50:45;;;;;;;82.82;75.97;;;;;;;7.18;100.00;101148.28;4989080;28;20046;-82
2022/01/17 10:53:16;;;;;;;81.82;74.60;;;;;;;8.06;100.00;101139.91;4984302;28;20062;-81
2022/01/17 10:55:45;;;;;;;81.80;74.90;;;;;;;6.70;100.00;101131.63;5000813;28;20042;-78
2022/01/17 10:58:17;;;;;;;82.60;76.07;;;;;;;6.50;100.00;101128.56;4994304;28;20057;-82
2022/01/17 11:00:46;;;;;;;83.15;76.25;;;;;;;7.39;100.00;101140.56;4991977;28;20108;-80
2022/01/17 11:03:15;;;;;;;83.55;76.78;;;;;;;7.79;100.00;101138.63;5000309;28;20046;-81
2022/01/17 11:05:44;;;;;;;80.47;74.03;;;;;;;7.45;100.00;101139.84;4995730;28;20132;-80
2022/01/17 11:08:13;;;;;;;83.55;76.75;;;;;;;6.80;100.00;101141.00;5006739;28;20050;-80
2022/01/17 11:10:42;;;;;;;80.30;74.03;;;;;;;7.22;100.00;101139.81;4995637;28;20050;-82
2022/01/17 11:13:10;;;;;;;81.45;75.00;;;;;;;7.47;100.00;101139.66;5001179;28;20102;-80
2022/01/17 11:15:39;;;;;;;78.53;72.53;;;;;;;7.49;100.00;101132.41;4999311;28;20065;-79
2022/01/17 11:18:10;;;;;;;85.97;78.72;;;;;;;7.25;100.00;101122.78;5006011;28;20046;-78
2022/01/17 11:20:37;;;;;;;83.53;76.72;;;;;;;7.20;100.00;101112.78;4990660;28;20066;-80
2022/01/17 11:23:04;;;;;;;83.75;76.75;;;;;;;6.67;100.00;101109.03;4996318;28;20050;-80
2022/01/17 11:25:34;;;;;;;86.75;79.55;;;;;;;7.03;100.00;101101.47;4996730;28;20038;-78
2022/01/17 11:28:04;;;;;;;84.22;77.15;;;;;;;6.41;100.00;101133.03;4990280;28;20402;-78
2022/01/17 11:30:33;;;;;;;82.82;75.93;;;;;;;6.56;100.00;101109.41;5000243;28;20042;-81
2022/01/17 11:33:03;;;;;;;82.20;75.30;;;;;;;6.71;100.00;101088.41;4988070;28;20414;-80